createdAt,value
2019-05-03T00:02:29.785Z,93.77
2019-05-03T00:05:23.296Z,88.15
2019-05-03T00:07:59.664Z,86.35
2019-05-03T00:10:32.819Z,89.54
2019-05-03T00:13:06.019Z,84.83
2019-05-03T00:15:38.592Z,86.82
2019-05-03T00:18:12.302Z,88.48
2019-05-03T00:20:44.841Z,92.99
2019-05-03T00:23:17.299Z,92.99
2019-05-03T00:25:50.054Z,91.06
2019-05-03T00:28:22.740Z,91.06
2019-05-03T00:30:55.309Z,91.36
2019-05-03T00:33:31.817Z,93.23
2019-05-03T00:36:12.316Z,92.48
2019-05-03T00:38:44.748Z,88.21
2019-05-03T00:41:17.326Z,85.81
2019-05-03T00:43:51.734Z,84.87
2019-05-03T00:46:23.802Z,84.87
2019-05-03T00:49:00.800Z,90.06
2019-05-03T00:51:33.279Z,88.19
2019-05-03T00:54:05.805Z,88.66
2019-05-03T00:56:38.396Z,88.66
2019-05-03T00:59:12.656Z,84.48
2019-05-03T01:01:45.319Z,84.48
2019-05-03T01:04:17.858Z,89.81
2019-05-03T01:06:50.304Z,89.81
2019-05-03T01:09:23.985Z,87.62
2019-05-03T01:12:01.950Z,87.62
2019-05-03T01:14:36.301Z,88.13
2019-05-03T01:17:08.414Z,84.42
2019-05-03T01:19:40.321Z,85.18
2019-05-03T01:22:12.710Z,85.36
2019-05-03T01:24:45.285Z,85.36
2019-05-03T01:27:17.641Z,87.10
2019-05-03T01:29:51.943Z,87.10
2019-05-03T01:32:25.204Z,88.52
2019-05-03T01:35:03.188Z,86.66
2019-05-03T01:37:35.888Z,86.66
2019-05-03T01:40:10.297Z,87.94
2019-05-03T01:42:46.330Z,88.29
2019-05-03T01:45:18.846Z,88.82
2019-05-03T01:47:59.019Z,88.82
2019-05-03T01:50:39.383Z,86.74
2019-05-03T01:53:13.319Z,87.03
2019-05-03T01:55:53.345Z,86.51
2019-05-03T01:58:27.655Z,86.51
2019-05-03T02:01:16.651Z,87.44
2019-05-03T02:04:06.817Z,88.37
2019-05-03T02:06:39.301Z,85.74
2019-05-03T02:09:12.201Z,85.89
2019-05-03T02:11:44.720Z,86.85
2019-05-03T02:14:17.312Z,86.22
2019-05-03T02:16:49.245Z,87.03
2019-05-03T02:19:22.356Z,87.03
2019-05-03T02:21:54.306Z,86.28
2019-05-03T02:24:28.089Z,85.97
2019-05-03T02:27:02.167Z,86.85
2019-05-03T02:29:34.693Z,85.42
2019-05-03T02:32:07.301Z,85.12
2019-05-03T02:34:39.598Z,85.10
2019-05-03T02:37:13.866Z,85.10
2019-05-03T02:39:47.048Z,85.12
2019-05-03T02:42:19.720Z,84.74
2019-05-03T02:44:55.320Z,84.40
2019-05-03T02:47:28.875Z,83.83
2019-05-03T02:50:05.978Z,85.38
2019-05-03T02:52:38.009Z,85.22
2019-05-03T02:55:16.028Z,85.02
2019-05-03T02:57:47.469Z,83.59
2019-05-03T03:00:25.289Z,85.02
2019-05-03T03:02:58.284Z,84.64
2019-05-03T03:05:31.518Z,85.24
2019-05-03T03:08:06.329Z,85.24
2019-05-03T03:10:45.338Z,85.45
2019-05-03T03:13:19.523Z,85.77
2019-05-03T03:15:55.455Z,84.98
2019-05-03T03:18:36.401Z,84.77
2019-05-03T03:21:20.869Z,84.75
2019-05-03T03:24:13.051Z,84.75
2019-05-03T03:26:47.296Z,84.95
2019-05-03T03:29:27.304Z,83.60
2019-05-03T03:32:20.047Z,84.07
2019-05-03T03:35:21.239Z,84.07
2019-05-03T03:37:50.926Z,84.87
2019-05-03T03:40:25.532Z,84.70
2019-05-03T03:43:05.224Z,83.44
2019-05-03T03:45:39.546Z,84.10
2019-05-03T03:48:15.862Z,85.92
2019-05-03T03:50:52.296Z,89.44
2019-05-03T03:53:27.537Z,90.94
2019-05-03T03:56:05.554Z,90.94
2019-05-03T03:58:38.459Z,90.64
2019-05-03T04:01:15.526Z,90.21
2019-05-03T04:03:47.364Z,87.86
2019-05-03T04:06:21.556Z,87.17
2019-05-03T04:08:56.114Z,87.17
2019-05-03T04:11:29.037Z,86.73
2019-05-03T04:14:01.572Z,86.73
2019-05-03T04:16:58.181Z,86.69
2019-05-03T04:19:36.606Z,87.14
2019-05-03T04:22:09.415Z,88.32
2019-05-03T04:24:42.050Z,85.28
2019-05-03T04:27:22.742Z,87.05
2019-05-03T04:29:55.582Z,88.04
2019-05-03T04:32:29.249Z,86.78
2019-05-03T04:35:01.790Z,87.48
2019-05-03T04:37:35.895Z,87.48
2019-05-03T04:40:10.456Z,87.94
2019-05-03T04:42:46.806Z,89.32
2019-05-03T04:45:17.354Z,88.84
2019-05-03T04:47:49.720Z,88.52
2019-05-03T04:50:25.264Z,88.52
2019-05-03T04:52:56.927Z,88.92
2019-05-03T04:55:29.703Z,84.53
2019-05-03T04:58:04.647Z,85.53
2019-05-03T05:00:36.212Z,86.08
2019-05-03T05:03:08.974Z,82.50
2019-05-03T05:05:41.738Z,85.73
2019-05-03T05:08:16.302Z,85.73
2019-05-03T05:10:48.398Z,84.34
2019-05-03T05:13:21.280Z,82.88
2019-05-03T05:15:55.067Z,82.78
2019-05-03T05:18:36.759Z,82.78
2019-05-03T05:21:11.306Z,79.78
2019-05-03T05:23:47.598Z,77.99
2019-05-03T05:26:24.877Z,77.99
2019-05-03T05:29:05.393Z,80.78
2019-05-03T05:31:37.894Z,78.72
2019-05-03T05:34:10.473Z,80.03
2019-05-03T05:36:45.075Z,81.03
2019-05-03T05:39:21.361Z,81.20
2019-05-03T05:41:55.458Z,78.63
2019-05-03T05:44:29.319Z,78.63
2019-05-03T05:47:04.691Z,79.30
2019-05-03T05:49:55.011Z,79.30
2019-05-03T05:52:29.354Z,79.52
2019-05-03T05:55:04.632Z,79.32
2019-05-03T05:57:45.014Z,79.32
2019-05-03T06:00:25.637Z,78.90
2019-05-03T06:02:59.501Z,75.93
2019-05-03T06:05:32.047Z,75.77
2019-05-03T06:08:05.386Z,75.98
2019-05-03T06:10:42.354Z,77.54
2019-05-03T06:13:29.336Z,78.41
2019-05-03T06:16:10.980Z,78.41
2019-05-03T06:18:54.280Z,77.84
2019-05-03T06:21:26.293Z,79.68
2019-05-03T06:24:06.429Z,80.75
2019-05-03T06:26:40.404Z,81.06
2019-05-03T06:29:14.830Z,83.99
2019-05-03T06:31:48.849Z,86.23
2019-05-03T06:34:21.516Z,87.91
2019-05-03T06:36:55.566Z,86.31
2019-05-03T06:39:30.307Z,84.48
2019-05-03T06:42:05.071Z,86.41
2019-05-03T06:44:37.348Z,86.41
2019-05-03T06:47:10.592Z,92.44
2019-05-03T06:49:44.893Z,95.95
2019-05-03T06:52:19.629Z,94.71
2019-05-03T06:54:51.631Z,93.18
2019-05-03T06:57:25.409Z,91.35
2019-05-03T07:00:10.287Z,86.71
2019-05-03T07:02:44.762Z,88.08
2019-05-03T07:05:22.067Z,88.08
2019-05-03T07:08:15.146Z,87.22
2019-05-03T07:10:49.508Z,84.83
2019-05-03T07:13:22.303Z,86.23
2019-05-03T07:15:56.001Z,86.35
2019-05-03T07:21:16.743Z,82.27
2019-05-03T07:23:49.278Z,78.45
2019-05-03T07:26:21.764Z,78.32
2019-05-03T07:28:54.638Z,78.32
2019-05-03T07:31:27.302Z,78.52
2019-05-03T07:34:00.406Z,75.90
2019-05-03T07:36:32.854Z,76.30
2019-05-03T07:39:07.636Z,79.03
2019-05-03T07:41:40.269Z,77.31
2019-05-03T07:44:12.685Z,75.36
2019-05-03T07:46:45.364Z,75.36
2019-05-03T07:49:17.865Z,75.79
2019-05-03T07:51:50.756Z,74.92
2019-05-03T07:54:24.838Z,74.57
2019-05-03T07:56:59.225Z,71.65
2019-05-03T07:59:31.802Z,74.16
2019-05-03T08:02:05.566Z,74.05
2019-05-03T08:04:37.754Z,72.17
2019-05-03T08:07:20.664Z,72.61
2019-05-03T08:09:46.050Z,72.00
2019-05-03T08:12:19.299Z,73.38
2019-05-03T08:14:51.841Z,70.05
2019-05-03T08:17:25.663Z,70.05
2019-05-03T08:19:59.671Z,69.75
2019-05-03T08:22:34.406Z,70.41
2019-05-03T08:25:09.313Z,69.37
2019-05-03T08:27:41.880Z,66.97
2019-05-03T08:30:16.710Z,66.97
2019-05-03T08:32:54.925Z,68.25
2019-05-03T08:35:35.434Z,65.26
2019-05-03T08:38:07.257Z,67.02
2019-05-03T08:40:41.514Z,65.24
2019-05-03T08:43:15.421Z,65.24
2019-05-03T08:45:47.844Z,62.84
2019-05-03T08:48:20.443Z,63.02
2019-05-03T08:50:55.288Z,61.69
2019-05-03T08:53:27.286Z,60.70
2019-05-03T08:56:01.395Z,60.13
2019-05-03T08:58:35.128Z,60.01
2019-05-03T09:01:09.470Z,59.60
2019-05-03T09:03:42.294Z,58.84
2019-05-03T09:06:15.519Z,55.17
2019-05-03T09:08:48.576Z,55.17
2019-05-03T09:11:31.836Z,56.29
2019-05-03T09:13:57.334Z,53.60
2019-05-03T09:16:31.572Z,53.33
2019-05-03T09:19:05.547Z,54.30
2019-05-03T09:21:38.627Z,55.62
2019-05-03T09:24:36.378Z,54.71
2019-05-03T09:27:09.342Z,53.58
2019-05-03T09:30:35.713Z,53.58
2019-05-03T09:37:07.867Z,50.57
2019-05-03T09:39:40.601Z,48.73
2019-05-03T09:42:14.908Z,48.90
2019-05-03T09:44:47.859Z,47.29
2019-05-03T12:10:52.303Z,35.37
2019-05-03T12:13:21.021Z,35.37
2019-05-03T12:15:55.267Z,36.67
2019-05-03T12:18:28.456Z,37.84
2019-05-03T12:21:07.218Z,38.70
2019-05-03T12:23:39.992Z,41.30
2019-05-03T12:26:14.716Z,39.39
2019-05-03T12:28:47.479Z,39.89
2019-05-03T12:31:31.757Z,39.63
2019-05-03T12:33:55.151Z,39.04
2019-05-03T12:36:27.263Z,38.15
2019-05-03T12:39:01.377Z,39.06
2019-05-03T12:41:35.414Z,38.60
2019-05-03T12:44:08.113Z,37.69
2019-05-03T12:46:45.035Z,36.12
2019-05-03T12:49:17.585Z,34.04
2019-05-03T12:51:50.333Z,33.78
2019-05-03T12:54:25.551Z,31.48
2019-05-03T12:56:58.273Z,28.85
2019-05-03T12:59:30.383Z,29.50
2019-05-03T13:02:07.100Z,29.50
2019-05-03T13:04:44.688Z,31.39
2019-05-03T13:07:19.093Z,31.68
2019-05-03T13:09:51.776Z,31.36
2019-05-03T13:12:28.749Z,27.91
2019-05-03T13:15:51.766Z,24.14
2019-05-03T13:18:25.258Z,22.77
2019-05-03T13:20:58.037Z,23.81
2019-05-03T13:23:30.684Z,26.72
2019-05-03T13:26:06.737Z,27.74
2019-05-03T13:28:39.392Z,27.74
2019-05-03T13:31:26.458Z,27.65
2019-05-03T13:33:58.884Z,27.65
2019-05-03T13:36:31.285Z,26.49
2019-05-03T13:39:13.965Z,25.55
2019-05-03T13:41:45.504Z,25.21
2019-05-03T13:44:18.418Z,23.45
2019-05-03T13:46:51.097Z,24.65
2019-05-03T13:49:23.410Z,23.44
2019-05-03T13:51:55.771Z,21.04
2019-05-03T13:54:28.337Z,22.45
2019-05-03T13:57:00.649Z,23.70
2019-05-03T13:59:35.021Z,23.70
2019-05-03T14:02:15.181Z,24.47
2019-05-03T14:04:50.197Z,27.63
2019-05-03T14:07:15.246Z,26.94
2019-05-03T14:09:47.462Z,26.94
2019-05-03T14:12:19.871Z,28.28
2019-05-03T14:14:55.949Z,29.32
2019-05-03T14:17:29.464Z,28.75
2019-05-03T14:20:06.331Z,28.72
2019-05-03T14:22:40.383Z,31.20
2019-05-03T14:25:12.791Z,32.11
2019-05-03T14:27:45.691Z,32.11
2019-05-03T14:30:20.285Z,32.73
2019-05-03T14:32:52.783Z,35.10
2019-05-03T14:35:25.289Z,35.10
2019-05-03T14:37:57.292Z,34.41
2019-05-03T14:40:29.263Z,33.50
2019-05-03T14:43:01.851Z,32.83
2019-05-03T14:45:35.303Z,32.12
2019-05-03T14:48:08.522Z,24.51
2019-05-03T14:50:41.354Z,24.51
2019-05-03T14:53:14.756Z,21.56
2019-05-03T14:55:49.316Z,18.69
2019-05-03T14:58:32.373Z,18.97
2019-05-03T15:01:12.395Z,18.97
2019-05-03T15:03:45.218Z,18.68
2019-05-03T15:06:17.793Z,22.03
2019-05-03T15:08:50.498Z,22.03
2019-05-03T15:11:23.018Z,24.03
2019-05-03T15:13:57.297Z,25.73
2019-05-03T15:16:29.290Z,30.14
2019-05-03T15:19:02.394Z,30.30
2019-05-03T15:21:35.809Z,30.30
2019-05-03T15:24:07.738Z,30.69
2019-05-03T15:26:40.288Z,30.61
2019-05-03T15:29:12.256Z,30.14
2019-05-03T15:31:47.282Z,30.14
2019-05-03T15:34:20.810Z,30.71
2019-05-03T15:36:54.707Z,30.80
2019-05-03T15:39:27.782Z,31.26
2019-05-03T15:42:05.297Z,31.95
2019-05-03T15:44:54.391Z,31.31
2019-05-03T15:47:44.615Z,32.38
2019-05-03T15:52:50.259Z,33.79
2019-05-03T15:55:26.047Z,36.82
2019-05-03T15:57:58.681Z,36.82
2019-05-03T16:00:31.576Z,37.86
2019-05-03T16:03:08.878Z,38.10
2019-05-03T16:05:38.395Z,38.50
2019-05-03T16:08:10.878Z,39.23
2019-05-03T16:10:45.528Z,39.23
2019-05-03T16:13:22.453Z,39.53
2019-05-03T16:15:55.641Z,40.23
2019-05-03T16:18:28.599Z,40.47
2019-05-03T16:21:01.128Z,40.47
2019-05-03T16:23:35.346Z,40.47
2019-05-03T16:26:14.350Z,40.83
2019-05-03T16:28:48.291Z,40.83
2019-05-03T16:31:22.249Z,41.70
2019-05-03T16:33:55.233Z,41.38
2019-05-03T16:36:27.835Z,40.16
2019-05-03T16:39:00.586Z,39.52
2019-05-03T16:41:35.390Z,39.73
2019-05-03T16:44:07.784Z,39.67
2019-05-03T16:46:40.395Z,40.15
2019-05-03T16:49:12.831Z,40.74
2019-05-03T16:51:46.404Z,41.77
2019-05-03T16:54:18.855Z,42.57
2019-05-03T16:56:51.338Z,44.08
2019-05-03T16:59:24.760Z,45.00
2019-05-03T17:01:57.421Z,45.00
2019-05-03T17:04:34.623Z,45.70
2019-05-03T17:07:15.131Z,46.57
2019-05-03T17:09:49.300Z,47.34
2019-05-03T17:12:25.746Z,47.53
2019-05-03T17:14:58.622Z,47.96
2019-05-03T17:17:31.311Z,47.96
2019-05-03T17:20:05.210Z,48.27
2019-05-03T17:22:37.775Z,48.27
2019-05-03T17:25:10.362Z,48.89
2019-05-03T17:27:44.818Z,48.52
2019-05-03T17:30:17.485Z,47.22
2019-05-03T17:32:49.901Z,47.27
2019-05-03T17:35:22.311Z,47.99
2019-05-03T17:37:55.048Z,46.90
2019-05-03T17:40:27.621Z,46.90
2019-05-03T17:43:05.034Z,47.17
2019-05-03T17:45:42.286Z,47.72
2019-05-03T17:48:14.987Z,47.79
2019-05-03T17:50:47.578Z,47.79
2019-05-03T17:53:27.667Z,47.96
2019-05-03T17:56:01.967Z,48.46
2019-05-03T17:58:52.838Z,48.60
2019-05-03T18:01:44.559Z,49.36
2019-05-03T18:04:21.363Z,50.61
2019-05-03T18:06:55.657Z,50.68
2019-05-03T18:09:30.314Z,50.68
2019-05-03T18:12:04.648Z,50.78
2019-05-03T18:14:37.783Z,50.92
2019-05-03T18:17:10.322Z,50.92
2019-05-03T18:19:44.696Z,51.40
2019-05-03T18:22:16.792Z,52.10
2019-05-03T18:24:49.301Z,52.10
2019-05-03T18:27:21.750Z,51.65
2019-05-03T18:29:55.434Z,51.65
2019-05-03T18:32:27.865Z,51.79
2019-05-03T18:35:00.367Z,51.00
2019-05-03T18:37:34.837Z,51.35
2019-05-03T18:40:10.341Z,51.35
2019-05-03T18:42:50.370Z,52.55
2019-05-03T18:45:42.295Z,51.45
2019-05-03T18:48:15.298Z,51.45
2019-05-03T18:50:47.740Z,52.45
2019-05-03T18:53:20.278Z,52.45
2019-05-03T18:55:52.833Z,52.93
2019-05-03T18:58:27.071Z,53.73
2019-05-03T19:00:59.694Z,54.96
2019-05-03T19:03:32.295Z,56.28
2019-05-03T19:06:14.302Z,59.28
2019-05-03T19:09:05.250Z,60.18
2019-05-03T19:11:47.315Z,60.18
2019-05-03T19:14:21.364Z,60.01
2019-05-03T19:17:01.464Z,60.00
2019-05-03T19:19:39.308Z,60.00
2019-05-03T19:22:12.297Z,61.73
2019-05-03T19:24:44.692Z,61.98
2019-05-03T19:27:17.307Z,61.98
2019-05-03T19:29:49.597Z,62.15
2019-05-03T19:32:22.319Z,62.15
2019-05-03T19:34:54.901Z,63.17
2019-05-03T19:37:28.168Z,63.17
2019-05-03T19:40:00.586Z,62.90
2019-05-03T19:42:35.248Z,62.28
2019-05-03T19:45:09.311Z,62.65
2019-05-03T19:47:40.913Z,62.55
2019-05-03T19:50:15.726Z,62.55
2019-05-03T19:53:06.530Z,62.92
2019-05-03T19:55:38.923Z,63.14
2019-05-03T19:58:11.417Z,63.46
2019-05-03T20:00:57.424Z,63.48
2019-05-03T20:03:36.023Z,63.53
2019-05-03T20:06:19.570Z,62.96
2019-05-03T20:08:56.529Z,63.81
2019-05-03T20:11:29.103Z,63.47
2019-05-03T20:14:01.708Z,63.39
2019-05-03T20:16:34.749Z,63.34
2019-05-03T20:19:17.671Z,63.61
2019-05-03T20:21:42.675Z,64.84
2019-05-03T20:24:15.290Z,64.84
2019-05-03T20:26:48.051Z,65.31
2019-05-03T20:29:20.451Z,65.31
2019-05-03T20:31:52.823Z,64.75
2019-05-03T20:34:25.314Z,65.24
2019-05-03T20:36:57.613Z,65.75
2019-05-03T20:39:30.305Z,65.75
2019-05-03T20:42:04.441Z,66.28
2019-05-03T20:44:54.523Z,66.28
2019-05-03T20:47:28.556Z,66.61
2019-05-03T20:50:17.332Z,66.69
2019-05-03T20:52:49.759Z,66.55
2019-05-03T20:55:22.316Z,66.55
2019-05-03T20:57:56.507Z,66.72
2019-05-03T21:00:29.038Z,66.72
2019-05-03T21:03:01.452Z,66.69
2019-05-03T21:05:36.818Z,66.80
2019-05-03T21:08:08.422Z,66.66
2019-05-03T21:10:40.827Z,67.18
2019-05-03T21:13:14.622Z,67.94
2019-05-03T21:16:14.643Z,67.56
2019-05-03T21:18:56.311Z,67.46
2019-05-03T21:21:39.416Z,68.86
2019-05-03T21:24:19.315Z,68.86
2019-05-03T21:26:51.759Z,68.64
2019-05-03T21:29:24.311Z,68.64
2019-05-03T21:31:56.592Z,69.49
2019-05-03T21:34:29.075Z,69.49
2019-05-03T21:37:01.496Z,68.87
2019-05-03T21:39:34.855Z,70.14
2019-05-03T21:42:08.521Z,70.81
2019-05-03T21:44:40.882Z,70.48
2019-05-03T21:47:22.144Z,70.37
2019-05-03T21:49:56.346Z,70.96
2019-05-03T21:53:22.295Z,71.08
2019-05-03T21:55:56.647Z,71.80
2019-05-03T21:58:29.043Z,71.98
2019-05-03T22:01:05.060Z,72.00
2019-05-03T22:03:42.038Z,73.62
2019-05-03T22:06:15.410Z,73.62
2019-05-03T22:08:49.294Z,71.84
2019-05-03T22:11:21.272Z,74.90
2019-05-03T22:13:57.026Z,76.40
2019-05-03T22:16:45.015Z,76.21
2019-05-03T22:19:19.473Z,76.20
2019-05-03T22:22:05.604Z,76.20
2019-05-03T22:24:44.684Z,77.59
2019-05-03T22:27:17.317Z,76.09
2019-05-03T22:29:49.644Z,74.76
2019-05-03T22:32:22.304Z,74.76
2019-05-03T22:34:54.596Z,74.90
2019-05-03T22:37:27.055Z,74.90
2019-05-03T22:39:59.354Z,74.70
2019-05-03T22:42:34.439Z,74.68
2019-05-03T22:45:08.607Z,74.84
2019-05-03T22:47:41.314Z,75.18
2019-05-03T22:50:14.885Z,74.51
2019-05-03T22:52:47.698Z,74.51
2019-05-03T22:55:20.294Z,73.35
2019-05-03T22:57:54.587Z,74.31
2019-05-03T23:00:27.310Z,74.31
2019-05-03T23:03:02.806Z,74.78
2019-05-03T23:05:37.262Z,74.78
2019-05-03T23:08:11.169Z,74.74
2019-05-03T23:10:45.134Z,73.87
2019-05-03T23:13:18.298Z,74.88
2019-05-03T23:15:50.669Z,74.78
2019-05-03T23:18:24.650Z,74.78
2019-05-03T23:21:05.704Z,74.93
2019-05-03T23:23:54.657Z,75.39
2019-05-03T23:26:26.806Z,74.68
2019-05-03T23:28:59.321Z,74.58
2019-05-03T23:31:31.729Z,73.51
2019-05-03T23:34:04.941Z,73.51
2019-05-03T23:36:39.323Z,74.45
2019-05-03T23:39:11.842Z,74.51
2019-05-03T23:41:44.293Z,74.51
2019-05-03T23:44:18.302Z,75.49
2019-05-03T23:46:55.296Z,77.92
2019-05-03T23:49:27.662Z,77.09
2019-05-03T23:52:17.469Z,77.09
2019-05-03T23:54:49.804Z,76.65
2019-05-03T23:57:25.177Z,75.06
2019-05-03T23:59:58.295Z,77.30
